Terminal Aerodrome Forecast
Issued by NWS

Home | Current Version | Previous Version | Text Only | Print | Product List | Glossary On
Versions: 1 2 3 4 5 6 7 8 9 10 11 12 13 14 15 16 17 18 19 20 21 22 23
000
FTUS42 KFFC 050522
TAFFTY
TAF
KFTY 050522Z 0506/0606 21007KT P6SM SCT012 BKN035
     FM050700 21009KT 5SM -RA SCT007 BKN012
      TEMPO 0510/0514 1SM RA BR OVC007
     FM051400 31010G15KT 5SM -RA OVC008
     FM051900 32010G20KT P6SM VCSH OVC012
     FM052200 32012G17KT P6SM OVC015
     FM060500 34009KT P6SM FEW006 BKN012=

USA.gov is the U.S. government's official web portal to all federal, state and local government web resources and services.